createdAt,value
2018-03-25T00:00:01.138Z,22.33
2018-03-25T00:02:28.609Z,23.23
2018-03-25T00:04:57.609Z,20.43
2018-03-25T00:07:26.907Z,23.33
2018-03-25T00:09:56.312Z,22.40
2018-03-25T00:12:23.699Z,23.83
2018-03-25T00:14:52.082Z,19.83
2018-03-25T00:17:22.870Z,20.63
2018-03-25T00:19:51.728Z,23.30
2018-03-25T00:22:19.827Z,21.10
2018-03-25T00:24:47.219Z,20.60
2018-03-25T00:27:14.620Z,21.47
2018-03-25T00:29:42.738Z,25.87
2018-03-25T00:32:10.874Z,24.20
2018-03-25T00:34:39.151Z,22.67
2018-03-25T00:37:06.572Z,22.60
2018-03-25T00:39:33.966Z,18.30
2018-03-25T00:42:01.280Z,22.77
2018-03-25T00:44:29.635Z,18.80
2018-03-25T00:46:57.700Z,23.80
2018-03-25T00:49:26.003Z,23.37
2018-03-25T00:51:54.103Z,23.27
2018-03-25T00:54:21.545Z,24.47
2018-03-25T00:56:49.592Z,23.70
2018-03-25T00:59:17.897Z,23.57
2018-03-25T01:01:46.589Z,18.80
2018-03-25T01:04:15.492Z,19.47
2018-03-25T01:06:42.862Z,20.40
2018-03-25T01:09:11.152Z,23.50
2018-03-25T01:11:39.227Z,22.07
2018-03-25T01:14:07.740Z,22.43
2018-03-25T01:16:36.032Z,18.67
2018-03-25T01:19:04.309Z,20.80
2018-03-25T01:21:32.676Z,21.90
2018-03-25T01:24:00.957Z,19.57
2018-03-25T01:26:29.251Z,20.33
2018-03-25T01:28:56.612Z,22.37
2018-03-25T01:31:24.911Z,23.73
2018-03-25T01:33:52.269Z,23.67
2018-03-25T01:36:20.368Z,25.60
2018-03-25T01:38:47.741Z,22.43
2018-03-25T01:41:15.994Z,19.90
2018-03-25T01:43:44.255Z,22.47
2018-03-25T01:46:11.607Z,20.83
2018-03-25T01:48:38.960Z,20.10
2018-03-25T01:51:06.296Z,22.23
2018-03-25T01:53:33.819Z,22.77
2018-03-25T01:56:02.067Z,20.57
2018-03-25T01:58:30.520Z,25.30
2018-03-25T02:00:58.676Z,22.33
2018-03-25T02:03:26.956Z,22.87
2018-03-25T02:05:55.053Z,23.30
2018-03-25T02:08:22.376Z,22.03
2018-03-25T02:10:50.552Z,23.37
2018-03-25T02:13:19.129Z,22.20
2018-03-25T02:15:47.432Z,24.63
2018-03-25T02:18:14.814Z,21.33
2018-03-25T02:20:42.164Z,25.30
2018-03-25T02:23:10.423Z,21.97
2018-03-25T02:25:37.786Z,22.53
2018-03-25T02:28:06.063Z,22.30
2018-03-25T02:30:33.443Z,24.93
2018-03-25T02:33:00.799Z,23.00
2018-03-25T02:35:29.065Z,20.53
2018-03-25T02:37:56.496Z,19.73
2018-03-25T02:40:23.815Z,23.40
2018-03-25T02:42:51.184Z,22.00
2018-03-25T02:45:18.517Z,20.97
2018-03-25T02:47:45.851Z,23.70
2018-03-25T02:50:13.956Z,23.37
2018-03-25T02:52:41.404Z,21.77
2018-03-25T02:55:08.783Z,22.93
2018-03-25T02:57:36.147Z,26.43
2018-03-25T03:00:03.488Z,22.83
2018-03-25T03:02:30.883Z,25.13
2018-03-25T03:04:58.978Z,20.97
2018-03-25T03:07:26.484Z,20.90
2018-03-25T03:09:53.830Z,22.47
2018-03-25T03:12:21.176Z,22.17
2018-03-25T03:14:48.615Z,23.33
2018-03-25T03:17:16.890Z,22.23
2018-03-25T03:19:45.170Z,22.97
2018-03-25T03:22:13.443Z,25.47
2018-03-25T03:24:40.780Z,24.33
2018-03-25T03:27:08.960Z,24.90
2018-03-25T03:29:37.135Z,22.57
2018-03-25T03:32:04.527Z,21.97
2018-03-25T03:34:32.878Z,20.27
2018-03-25T03:37:01.189Z,23.83
2018-03-25T03:39:28.557Z,24.87
2018-03-25T03:41:56.849Z,24.73
2018-03-25T03:44:24.920Z,27.30
2018-03-25T03:46:53.046Z,22.50
2018-03-25T03:49:21.169Z,23.43
2018-03-25T03:51:49.247Z,21.10
2018-03-25T03:54:16.683Z,25.03
2018-03-25T03:56:44.919Z,26.70
2018-03-25T03:59:12.308Z,27.63
2018-03-25T04:01:39.633Z,25.90
2018-03-25T04:04:07.041Z,24.67
2018-03-25T04:06:34.372Z,24.77
2018-03-25T04:09:01.828Z,23.17
2018-03-25T04:11:29.140Z,20.97
2018-03-25T04:13:57.428Z,23.70
2018-03-25T04:16:24.799Z,22.97
2018-03-25T04:18:52.151Z,21.30
2018-03-25T04:21:19.527Z,21.20
2018-03-25T04:23:46.983Z,23.80
2018-03-25T04:26:15.079Z,20.60
2018-03-25T04:28:42.518Z,22.17
2018-03-25T04:31:10.658Z,25.07
2018-03-25T04:33:37.980Z,23.93
2018-03-25T04:36:06.079Z,25.00
2018-03-25T04:38:33.628Z,23.03
2018-03-25T04:41:01.725Z,27.53
2018-03-25T04:43:29.123Z,22.03
2018-03-25T04:45:57.668Z,24.13
2018-03-25T04:48:25.989Z,22.73
2018-03-25T04:50:53.368Z,26.07
2018-03-25T04:53:21.508Z,24.83
2018-03-25T04:55:48.940Z,24.03
2018-03-25T04:58:17.215Z,22.33
2018-03-25T05:00:45.329Z,26.27
2018-03-25T05:03:13.440Z,25.27
2018-03-25T05:05:40.822Z,21.93
2018-03-25T05:08:09.086Z,26.13
2018-03-25T05:10:37.212Z,25.07
2018-03-25T05:13:05.321Z,30.60
2018-03-25T05:15:32.761Z,24.87
2018-03-25T05:18:01.023Z,26.67
2018-03-25T05:20:28.472Z,27.17
2018-03-25T05:22:56.818Z,24.50
2018-03-25T05:25:24.933Z,31.70
2018-03-25T05:27:52.347Z,27.07
2018-03-25T05:30:19.693Z,28.00
2018-03-25T05:32:47.124Z,31.57
2018-03-25T05:35:14.465Z,26.73
2018-03-25T05:37:41.829Z,29.97
2018-03-25T05:40:10.093Z,18.40
2018-03-25T05:42:37.443Z,28.53
2018-03-25T05:45:05.736Z,27.30
2018-03-25T05:47:33.065Z,28.43
2018-03-25T05:50:01.179Z,25.17
2018-03-25T05:52:29.454Z,26.30
2018-03-25T05:54:57.579Z,27.47
2018-03-25T05:57:24.936Z,27.50
2018-03-25T05:59:52.777Z,27.63
2018-03-25T06:02:21.009Z,26.60
2018-03-25T06:04:49.277Z,26.67
2018-03-25T06:07:17.602Z,32.07
2018-03-25T06:09:45.674Z,28.03
2018-03-25T06:12:13.043Z,24.43
2018-03-25T06:14:40.392Z,29.67
2018-03-25T06:17:07.766Z,30.43
2018-03-25T06:19:35.100Z,28.57
2018-03-25T06:22:02.515Z,24.53
2018-03-25T06:24:30.590Z,30.07
2018-03-25T06:26:58.761Z,32.50
2018-03-25T06:29:27.062Z,29.30
2018-03-25T06:31:55.274Z,28.67
2018-03-25T06:34:22.616Z,31.10
2018-03-25T06:36:49.989Z,29.73
2018-03-25T06:39:17.377Z,29.27
2018-03-25T06:41:45.659Z,30.67
2018-03-25T06:44:14.016Z,30.43
2018-03-25T06:46:41.417Z,27.87
2018-03-25T06:49:09.563Z,28.43
2018-03-25T06:51:36.956Z,28.07
2018-03-25T06:54:04.377Z,29.63
2018-03-25T06:56:32.190Z,28.70
2018-03-25T06:58:59.584Z,30.80
2018-03-25T07:01:27.863Z,27.73
2018-03-25T07:03:56.467Z,29.57
2018-03-25T07:06:24.556Z,28.63
2018-03-25T07:08:52.738Z,30.40
2018-03-25T07:11:20.816Z,27.93
2018-03-25T07:13:48.212Z,30.77
2018-03-25T07:16:16.564Z,27.87
2018-03-25T07:18:43.951Z,28.97
2018-03-25T07:21:11.394Z,28.77
2018-03-25T07:23:38.752Z,28.33
2018-03-25T07:26:07.045Z,29.03
2018-03-25T07:28:34.550Z,29.37
2018-03-25T07:31:01.947Z,29.80
2018-03-25T07:33:30.098Z,28.43
2018-03-25T07:35:58.428Z,27.43
2018-03-25T07:38:25.790Z,28.00
2018-03-25T07:40:54.140Z,27.43
2018-03-25T07:43:22.470Z,27.30
2018-03-25T07:45:50.756Z,28.47
2018-03-25T07:48:18.218Z,26.97
2018-03-25T07:50:46.797Z,26.63
2018-03-25T07:53:14.225Z,28.10
2018-03-25T07:55:42.573Z,28.80
2018-03-25T07:58:09.952Z,36.43
2018-03-25T08:00:38.283Z,28.07
2018-03-25T08:03:06.415Z,26.00
2018-03-25T08:05:33.739Z,27.87
2018-03-25T08:08:02.020Z,25.13
2018-03-25T08:10:30.302Z,28.27
2018-03-25T08:12:57.779Z,28.83
2018-03-25T08:15:25.174Z,27.20
2018-03-25T08:17:53.287Z,25.27
2018-03-25T08:20:21.407Z,25.83
2018-03-25T08:22:49.499Z,27.63
2018-03-25T08:25:16.986Z,26.63
2018-03-25T08:27:45.308Z,25.27
2018-03-25T08:30:13.642Z,30.90
2018-03-25T08:32:41.017Z,29.27
2018-03-25T08:35:09.166Z,29.13
2018-03-25T08:37:36.624Z,25.73
2018-03-25T08:40:04.032Z,31.33
2018-03-25T08:42:32.307Z,29.53
2018-03-25T08:45:00.545Z,23.90
2018-03-25T08:47:27.888Z,30.40
2018-03-25T08:49:55.281Z,29.97
2018-03-25T08:52:23.825Z,25.83
2018-03-25T08:54:52.103Z,27.43
2018-03-25T08:57:20.654Z,28.50
2018-03-25T08:59:48.751Z,29.03
2018-03-25T09:02:16.201Z,26.93
2018-03-25T09:04:43.585Z,25.67
2018-03-25T09:07:11.730Z,26.50
2018-03-25T09:09:39.058Z,29.53
2018-03-25T09:12:07.172Z,20.57
2018-03-25T09:14:34.582Z,30.13
2018-03-25T09:17:02.689Z,29.00
2018-03-25T09:19:30.154Z,29.07
2018-03-25T09:21:57.532Z,28.27
2018-03-25T09:24:24.991Z,30.43
2018-03-25T09:26:52.417Z,30.67
2018-03-25T09:29:19.798Z,31.03
2018-03-25T09:31:47.884Z,29.70
2018-03-25T09:34:16.042Z,29.20
2018-03-25T09:36:43.391Z,27.70
2018-03-25T09:39:10.806Z,30.80
2018-03-25T09:41:38.904Z,30.67
2018-03-25T09:44:07.085Z,29.63
2018-03-25T09:46:34.436Z,32.00
2018-03-25T09:49:01.877Z,28.97
2018-03-25T09:51:29.253Z,21.07
2018-03-25T09:53:57.524Z,28.37
2018-03-25T09:56:24.968Z,29.53
2018-03-25T09:58:52.301Z,29.37
2018-03-25T10:01:26.636Z,30.13
2018-03-25T10:03:54.004Z,29.63
2018-03-25T10:06:21.392Z,30.50
2018-03-25T10:08:49.475Z,29.23
2018-03-25T10:11:17.652Z,29.30
2018-03-25T10:13:45.750Z,22.30
2018-03-25T10:16:13.154Z,27.13
2018-03-25T10:18:41.256Z,25.83
2018-03-25T10:21:08.640Z,26.57
2018-03-25T10:23:35.990Z,24.20
2018-03-25T10:26:03.437Z,22.67
2018-03-25T10:28:31.562Z,30.40
2018-03-25T10:30:58.896Z,27.60
2018-03-25T10:33:26.256Z,27.97
2018-03-25T10:35:53.672Z,27.03
2018-03-25T10:38:21.051Z,26.70
2018-03-25T10:40:48.520Z,28.27
2018-03-25T10:43:15.913Z,24.87
2018-03-25T10:45:43.706Z,24.00
2018-03-25T10:48:11.811Z,23.77
2018-03-25T10:50:40.092Z,21.10
2018-03-25T10:53:08.463Z,22.43
2018-03-25T10:55:35.828Z,19.80
2018-03-25T10:58:03.232Z,21.07
2018-03-25T11:00:31.333Z,22.73
2018-03-25T11:02:58.800Z,22.03
2018-03-25T11:05:26.944Z,22.63
2018-03-25T11:07:54.281Z,22.30
2018-03-25T11:10:21.676Z,21.63
2018-03-25T11:12:49.978Z,17.07
2018-03-25T11:15:17.627Z,23.33
2018-03-25T11:17:45.057Z,21.37
2018-03-25T11:20:13.175Z,16.77
2018-03-25T11:22:41.426Z,21.90
2018-03-25T11:25:08.818Z,20.73
2018-03-25T11:27:37.080Z,21.30
2018-03-25T11:30:05.217Z,21.40
2018-03-25T11:32:33.326Z,19.57
2018-03-25T11:35:00.657Z,20.60
2018-03-25T11:37:28.004Z,21.00
2018-03-25T11:39:55.383Z,21.17
2018-03-25T11:42:23.487Z,22.43
2018-03-25T11:44:51.601Z,21.90
2018-03-25T11:47:19.009Z,22.60
2018-03-25T11:49:47.252Z,22.27
2018-03-25T11:52:15.528Z,18.67
2018-03-25T11:54:49.950Z,17.37
2018-03-25T11:57:18.303Z,16.83
2018-03-25T11:59:45.665Z,19.80
2018-03-25T12:02:13.124Z,22.27
2018-03-25T12:04:40.504Z,19.17
2018-03-25T12:07:08.772Z,18.97
2018-03-25T12:09:36.908Z,18.27
2018-03-25T12:12:04.273Z,17.23
2018-03-25T12:14:31.679Z,17.60
2018-03-25T12:17:00.015Z,20.00
2018-03-25T12:19:27.393Z,23.47
2018-03-25T12:21:55.484Z,29.27
2018-03-25T12:24:23.632Z,22.63
2018-03-25T12:26:51.736Z,20.27
2018-03-25T12:29:19.115Z,27.17
2018-03-25T12:31:46.587Z,24.27
2018-03-25T12:34:13.977Z,22.37
2018-03-25T12:36:42.336Z,17.93
2018-03-25T12:39:10.682Z,18.90
2018-03-25T12:41:38.062Z,19.87
2018-03-25T12:44:06.363Z,19.20
2018-03-25T12:46:34.654Z,22.27
2018-03-25T12:49:04.071Z,605.07
2018-03-25T12:51:32.226Z,824.10
2018-03-25T12:54:07.178Z,695.63
2018-03-25T12:56:34.665Z,386.57
2018-03-25T12:59:02.065Z,266.47
2018-03-25T13:01:30.516Z,124.67
2018-03-25T13:03:58.741Z,57.03
2018-03-25T13:06:27.012Z,847.60
2018-03-25T13:08:55.153Z,954.27
2018-03-25T13:11:22.481Z,307.47
2018-03-25T13:13:49.908Z,146.20
2018-03-25T13:16:17.335Z,19.73
2018-03-25T13:18:52.418Z,31.80
2018-03-25T13:21:20.901Z,24.70
2018-03-25T13:23:48.323Z,21.33
2018-03-25T13:26:16.180Z,25.77
2018-03-25T13:28:43.628Z,21.50
2018-03-25T13:31:11.728Z,27.17
2018-03-25T13:33:45.685Z,36.83
2018-03-25T13:36:13.848Z,67.20
2018-03-25T13:38:41.228Z,23.33
2018-03-25T13:41:08.709Z,22.00
2018-03-25T13:43:37.167Z,22.83
2018-03-25T13:46:05.448Z,18.20
2018-03-25T13:48:32.897Z,14.70
2018-03-25T13:51:01.236Z,18.80
2018-03-25T13:53:28.689Z,20.93
2018-03-25T13:55:56.270Z,15.43
2018-03-25T13:58:23.790Z,18.03
2018-03-25T14:00:51.283Z,18.17
2018-03-25T14:03:19.627Z,17.87
2018-03-25T14:05:47.168Z,17.07
2018-03-25T14:08:21.533Z,16.20
2018-03-25T14:10:49.035Z,21.23
2018-03-25T14:13:17.248Z,13.87
2018-03-25T14:15:44.725Z,12.80
2018-03-25T14:18:12.321Z,9.97
2018-03-25T14:20:39.721Z,12.83
2018-03-25T14:23:07.215Z,13.63
2018-03-25T14:25:34.761Z,20.60
2018-03-25T14:28:02.474Z,17.83
2018-03-25T14:30:29.888Z,18.10
2018-03-25T14:32:58.108Z,18.47
2018-03-25T14:35:25.516Z,12.63
2018-03-25T14:37:52.948Z,17.77
2018-03-25T14:40:20.456Z,17.90
2018-03-25T14:42:47.927Z,18.90
2018-03-25T14:45:15.412Z,20.10
2018-03-25T14:47:42.883Z,18.57
2018-03-25T14:50:10.499Z,14.63
2018-03-25T14:52:37.940Z,15.97
2018-03-25T14:55:05.430Z,19.87
2018-03-25T14:57:32.937Z,16.73
2018-03-25T15:00:00.533Z,17.80
2018-03-25T15:02:28.944Z,18.43
2018-03-25T15:04:56.396Z,17.93
2018-03-25T15:07:23.828Z,18.87
2018-03-25T15:09:51.272Z,18.37
2018-03-25T15:12:18.937Z,19.63
2018-03-25T15:14:47.212Z,20.50
2018-03-25T15:17:14.992Z,21.00
2018-03-25T15:19:42.442Z,20.40
2018-03-25T15:22:09.828Z,22.53
2018-03-25T15:24:39.302Z,11.13
2018-03-25T15:27:07.835Z,20.13
2018-03-25T15:29:35.255Z,16.97
2018-03-25T15:32:03.073Z,28.83
2018-03-25T15:37:04.057Z,21.80
2018-03-25T15:39:31.524Z,21.03
2018-03-25T15:41:59.176Z,24.73
2018-03-25T15:44:26.617Z,20.67
2018-03-25T15:46:54.792Z,21.67
2018-03-25T15:49:23.124Z,20.87
2018-03-25T15:51:50.603Z,21.03
2018-03-25T15:54:18.080Z,18.60
2018-03-25T15:56:46.468Z,19.00
2018-03-25T15:59:14.708Z,17.60
2018-03-25T16:01:43.611Z,15.73
2018-03-25T16:04:10.980Z,19.53
2018-03-25T16:06:39.113Z,17.93
2018-03-25T16:09:06.601Z,22.40
2018-03-25T16:11:34.029Z,20.17
2018-03-25T16:14:01.443Z,16.87
2018-03-25T16:16:28.853Z,23.17
2018-03-25T16:18:56.305Z,19.40
2018-03-25T16:21:23.717Z,19.40
2018-03-25T16:23:51.081Z,22.10
2018-03-25T16:26:18.650Z,19.00
2018-03-25T16:28:46.172Z,20.63
2018-03-25T16:31:13.587Z,20.40
2018-03-25T16:33:41.224Z,30.37
2018-03-25T16:36:08.833Z,22.90
2018-03-25T16:38:36.980Z,19.90
2018-03-25T16:41:04.384Z,21.43
2018-03-25T16:43:31.762Z,21.33
2018-03-25T16:45:59.281Z,18.20
2018-03-25T16:48:27.457Z,18.10
2018-03-25T16:50:54.871Z,17.63
2018-03-25T16:53:22.264Z,18.77
2018-03-25T16:55:50.540Z,19.53
2018-03-25T16:58:18.588Z,20.27
2018-03-25T17:00:46.711Z,21.47
2018-03-25T17:03:14.841Z,20.87
2018-03-25T17:05:43.117Z,20.70
2018-03-25T17:08:11.252Z,20.10
2018-03-25T17:10:39.566Z,19.63
2018-03-25T17:13:07.718Z,20.30
2018-03-25T17:18:11.036Z,13.83
2018-03-25T17:20:39.300Z,20.33
2018-03-25T17:23:06.764Z,18.83
2018-03-25T17:25:34.109Z,16.10
2018-03-25T17:28:02.467Z,17.97
2018-03-25T17:30:30.659Z,19.20
2018-03-25T17:32:58.462Z,20.63
2018-03-25T17:35:25.805Z,21.10
2018-03-25T17:37:53.892Z,18.37
2018-03-25T17:40:22.235Z,17.10
2018-03-25T17:42:50.557Z,17.60
2018-03-25T17:45:19.785Z,17.83
2018-03-25T17:47:47.145Z,18.30
2018-03-25T17:50:14.624Z,19.60
2018-03-25T17:52:42.933Z,17.87
2018-03-25T17:55:11.064Z,20.30
2018-03-25T17:57:39.353Z,18.23
2018-03-25T18:00:07.524Z,20.53
2018-03-25T18:02:35.821Z,17.77
2018-03-25T18:05:04.148Z,18.80
2018-03-25T18:07:32.452Z,20.37
2018-03-25T18:09:59.840Z,17.87
2018-03-25T18:12:27.373Z,19.40
2018-03-25T18:14:55.680Z,17.70
2018-03-25T18:17:34.104Z,17.43
2018-03-25T18:19:51.227Z,16.90
2018-03-25T18:22:19.525Z,19.40
2018-03-25T18:24:47.792Z,19.17
2018-03-25T18:27:15.216Z,16.90
2018-03-25T18:29:42.600Z,20.10
2018-03-25T18:32:10.811Z,19.00
2018-03-25T18:34:39.136Z,18.87
2018-03-25T18:37:07.472Z,17.13
2018-03-25T18:39:35.584Z,16.90
2018-03-25T18:42:02.989Z,17.83
2018-03-25T18:44:31.160Z,18.37
2018-03-25T18:46:59.448Z,17.27
2018-03-25T18:49:27.569Z,17.50
2018-03-25T18:51:55.719Z,16.57
2018-03-25T18:54:23.102Z,18.07
2018-03-25T18:56:50.562Z,16.60
2018-03-25T18:59:17.944Z,21.67
2018-03-25T19:01:45.475Z,18.80
2018-03-25T19:04:12.916Z,17.73
2018-03-25T19:06:40.383Z,21.47
2018-03-25T19:09:08.749Z,20.43
2018-03-25T19:11:36.196Z,21.07
2018-03-25T19:14:04.357Z,18.37
2018-03-25T19:16:32.643Z,16.47
2018-03-25T19:19:00.055Z,20.87
2018-03-25T19:21:28.225Z,20.70
2018-03-25T19:23:55.621Z,21.60
2018-03-25T19:26:23.973Z,20.20
2018-03-25T19:28:51.313Z,19.73
2018-03-25T19:31:19.612Z,20.13
2018-03-25T19:33:47.002Z,15.33
2018-03-25T19:36:14.408Z,20.43
2018-03-25T19:38:42.550Z,20.87
2018-03-25T19:41:10.004Z,20.97
2018-03-25T19:43:38.154Z,20.33
2018-03-25T19:46:05.518Z,18.77
2018-03-25T19:48:33.679Z,20.90
2018-03-25T19:51:01.079Z,18.73
2018-03-25T19:53:29.436Z,20.10
2018-03-25T19:55:56.861Z,18.93
2018-03-25T19:58:25.146Z,16.93
2018-03-25T20:00:52.541Z,20.50
2018-03-25T20:03:20.925Z,19.57
2018-03-25T20:05:49.227Z,19.70
2018-03-25T20:08:16.772Z,19.53
2018-03-25T20:10:45.067Z,19.67
2018-03-25T20:13:13.153Z,23.10
2018-03-25T20:15:41.643Z,20.93
2018-03-25T20:18:09.024Z,20.07
2018-03-25T20:20:36.444Z,19.90
2018-03-25T20:23:04.610Z,20.50
2018-03-25T20:25:32.741Z,17.70
2018-03-25T20:28:00.942Z,20.43
2018-03-25T20:30:28.476Z,22.13
2018-03-25T20:32:56.825Z,21.47
2018-03-25T20:35:24.152Z,21.43
2018-03-25T20:37:52.486Z,22.07
2018-03-25T20:40:20.063Z,19.77
2018-03-25T20:42:48.502Z,20.13
2018-03-25T20:45:16.772Z,21.13
2018-03-25T20:47:44.198Z,20.83
2018-03-25T20:50:12.457Z,23.40
2018-03-25T20:52:40.599Z,24.47
2018-03-25T20:55:08.150Z,21.53
2018-03-25T20:57:36.256Z,21.73
2018-03-25T21:00:04.568Z,23.60
2018-03-25T21:02:32.717Z,31.60
2018-03-25T21:05:00.949Z,26.80
2018-03-25T21:07:28.680Z,25.60
2018-03-25T21:09:56.329Z,20.33
2018-03-25T21:12:24.405Z,23.17
2018-03-25T21:14:52.773Z,22.17
2018-03-25T21:17:20.869Z,20.90
2018-03-25T21:19:49.195Z,22.03
2018-03-25T21:22:16.577Z,24.03
2018-03-25T21:24:44.900Z,28.20
2018-03-25T21:27:12.313Z,28.13
2018-03-25T21:29:40.498Z,27.70
2018-03-25T21:32:07.921Z,24.73
2018-03-25T21:34:36.013Z,20.33
2018-03-25T21:37:04.296Z,24.07
2018-03-25T21:39:31.796Z,24.43
2018-03-25T21:41:59.250Z,24.67
2018-03-25T21:44:27.365Z,26.90
2018-03-25T21:46:54.791Z,28.60
2018-03-25T21:49:23.055Z,28.57
2018-03-25T21:51:50.470Z,26.33
2018-03-25T21:54:18.632Z,24.93
2018-03-25T21:56:46.936Z,18.83
2018-03-25T21:59:15.143Z,24.40
2018-03-25T22:01:42.513Z,25.13
2018-03-25T22:04:10.859Z,25.13
2018-03-25T22:06:38.283Z,25.80
2018-03-25T22:09:05.775Z,27.10
2018-03-25T22:11:33.148Z,23.83
2018-03-25T22:14:01.492Z,25.20
2018-03-25T22:16:29.588Z,21.97
2018-03-25T22:18:58.864Z,27.53
2018-03-25T22:21:27.016Z,27.37
2018-03-25T22:23:55.339Z,21.13
2018-03-25T22:26:23.656Z,20.47
2018-03-25T22:28:51.747Z,20.33
2018-03-25T22:31:19.967Z,24.07
2018-03-25T22:33:47.363Z,23.90
2018-03-25T22:36:14.718Z,19.53
2018-03-25T22:38:42.145Z,23.53
2018-03-25T22:41:09.545Z,31.20
2018-03-25T22:43:37.912Z,28.53
2018-03-25T22:46:05.435Z,26.73
2018-03-25T22:48:32.815Z,24.80
2018-03-25T22:51:00.921Z,23.67
2018-03-25T22:53:28.494Z,17.50
2018-03-25T22:55:55.855Z,19.67
2018-03-25T22:58:23.275Z,27.70
2018-03-25T23:00:50.768Z,22.30
2018-03-25T23:03:18.117Z,24.50
2018-03-25T23:05:45.518Z,25.00
2018-03-25T23:08:13.776Z,23.67
2018-03-25T23:10:42.264Z,26.37
2018-03-25T23:13:10.560Z,27.70
2018-03-25T23:15:38.911Z,26.27
2018-03-25T23:18:06.385Z,22.47
2018-03-25T23:20:34.680Z,20.90
2018-03-25T23:23:02.969Z,26.90
2018-03-25T23:25:30.263Z,25.03
2018-03-25T23:27:57.632Z,25.90
2018-03-25T23:30:25.731Z,17.97
2018-03-25T23:32:53.204Z,26.20
2018-03-25T23:35:20.595Z,25.83
2018-03-25T23:37:47.965Z,20.87
2018-03-25T23:40:16.053Z,24.47
2018-03-25T23:42:43.440Z,27.10
2018-03-25T23:45:11.506Z,24.53
2018-03-25T23:47:38.907Z,21.67
2018-03-25T23:50:06.228Z,25.27
2018-03-25T23:52:33.575Z,24.80
2018-03-25T23:55:01.993Z,26.50
2018-03-25T23:57:29.313Z,19.83
2018-03-25T23:59:56.782Z,24.60
